Bay, Arkansas
Current Conditions -  °F | °C
As of 3:53 PM on Tuesday 21 Oct 2014 (Local Time) from KJBR Reporting Station
Clear Clear  
Wind Chill: 75°   Ceiling: Unl
Heat Index: 75°   Visibility: 10mi
Dew Point: 45°   Wind: 7mph
Humidity: 34%   Direction: 350°N
Pressure: 30.06"   Gusts: NA
Location:  35.74°N, 90.56°W
Report Text: KJBR 212053Z AUTO 35006KT 10SM CLR 24/07 A3006 RMK AO2 SLP176 T02390072 56013
Loading
Personal Weather Stations






























Interactive Weather Map
Tropical Storm Tracking
New forecast layout! Learn more

10-Day Weather Forecast

Advertisements
Track Severe Weather on mobile